sensor_id;sensor_type;location;lat;lon;timestamp;temperature;humidity
2300;DHT22;1158;48.750;9.078;2023-03-14T00:01:14;8.60;99.90
2300;DHT22;1158;48.750;9.078;2023-03-14T00:03:41;8.60;99.90
2300;DHT22;1158;48.750;9.078;2023-03-14T00:06:09;8.60;99.90
2300;DHT22;1158;48.750;9.078;2023-03-14T00:08:37;8.60;99.90
2300;DHT22;1158;48.750;9.078;2023-03-14T00:11:05;8.60;99.90
2300;DHT22;1158;48.750;9.078;2023-03-14T00:13:31;8.60;99.90
2300;DHT22;1158;48.750;9.078;2023-03-14T00:16:02;8.60;99.90
2300;DHT22;1158;48.750;9.078;2023-03-14T00:18:30;8.50;99.90
2300;DHT22;1158;48.750;9.078;2023-03-14T00:20:58;8.50;99.90
2300;DHT22;1158;48.750;9.078;2023-03-14T00:23:25;8.50;99.90
2300;DHT22;1158;48.750;9.078;2023-03-14T00:25:52;8.50;99.90
2300;DHT22;1158;48.750;9.078;2023-03-14T00:28:19;8.50;99.90
2300;DHT22;1158;48.750;9.078;2023-03-14T00:30:46;8.40;99.90
2300;DHT22;1158;48.750;9.078;2023-03-14T00:33:12;8.50;99.90
2300;DHT22;1158;48.750;9.078;2023-03-14T00:35:40;8.50;99.90
2300;DHT22;1158;48.750;9.078;2023-03-14T00:38:07;8.50;99.90
2300;DHT22;1158;48.750;9.078;2023-03-14T00:40:34;8.50;99.90
2300;DHT22;1158;48.750;9.078;2023-03-14T00:43:00;8.50;99.90
2300;DHT22;1158;48.750;9.078;2023-03-14T00:45:27;8.40;99.90
2300;DHT22;1158;48.750;9.078;2023-03-14T00:47:54;8.50;99.90
2300;DHT22;1158;48.750;9.078;2023-03-14T00:50:20;8.50;99.90
2300;DHT22;1158;48.750;9.078;2023-03-14T00:52:48;8.40;99.90
2300;DHT22;1158;48.750;9.078;2023-03-14T00:55:15;8.50;99.90
2300;DHT22;1158;48.750;9.078;2023-03-14T00:57:42;8.40;99.90
2300;DHT22;1158;48.750;9.078;2023-03-14T01:00:09;8.50;99.90
2300;DHT22;1158;48.750;9.078;2023-03-14T01:02:37;8.40;99.90
2300;DHT22;1158;48.750;9.078;2023-03-14T01:05:05;8.50;99.90
2300;DHT22;1158;48.750;9.078;2023-03-14T01:07:32;8.50;99.90
2300;DHT22;1158;48.750;9.078;2023-03-14T01:10:01;8.60;99.90
2300;DHT22;1158;48.750;9.078;2023-03-14T01:12:27;8.60;99.90
2300;DHT22;1158;48.750;9.078;2023-03-14T01:14:54;8.60;99.90
2300;DHT22;1158;48.750;9.078;2023-03-14T01:17:21;8.60;99.90
2300;DHT22;1158;48.750;9.078;2023-03-14T01:19:48;8.60;99.90
2300;DHT22;1158;48.750;9.078;2023-03-14T01:22:14;8.60;99.90
2300;DHT22;1158;48.750;9.078;2023-03-14T01:24:41;8.60;99.90
2300;DHT22;1158;48.750;9.078;2023-03-14T01:27:09;8.60;99.90
2300;DHT22;1158;48.750;9.078;2023-03-14T01:29:36;8.60;99.90
2300;DHT22;1158;48.750;9.078;2023-03-14T01:32:04;8.60;99.90
2300;DHT22;1158;48.750;9.078;2023-03-14T01:34:30;8.60;99.90
2300;DHT22;1158;48.750;9.078;2023-03-14T01:36:57;8.60;99.90
2300;DHT22;1158;48.750;9.078;2023-03-14T01:39:24;8.60;99.90
2300;DHT22;1158;48.750;9.078;2023-03-14T01:41:50;8.60;99.90
2300;DHT22;1158;48.750;9.078;2023-03-14T01:44:18;8.60;99.90
2300;DHT22;1158;48.750;9.078;2023-03-14T01:46:45;8.50;99.90
2300;DHT22;1158;48.750;9.078;2023-03-14T01:49:20;8.60;99.90
2300;DHT22;1158;48.750;9.078;2023-03-14T01:51:53;8.60;99.90
2300;DHT22;1158;48.750;9.078;2023-03-14T01:54:26;8.60;99.90
2300;DHT22;1158;48.750;9.078;2023-03-14T01:56:56;8.60;99.90
2300;DHT22;1158;48.750;9.078;2023-03-14T01:59:26;8.50;99.90
2300;DHT22;1158;48.750;9.078;2023-03-14T02:01:54;8.50;99.90
2300;DHT22;1158;48.750;9.078;2023-03-14T02:04:22;8.50;99.90
2300;DHT22;1158;48.750;9.078;2023-03-14T02:06:52;8.50;99.90
2300;DHT22;1158;48.750;9.078;2023-03-14T02:09:21;8.50;99.90
2300;DHT22;1158;48.750;9.078;2023-03-14T02:11:47;8.40;99.90
2300;DHT22;1158;48.750;9.078;2023-03-14T02:14:24;8.40;99.90
2300;DHT22;1158;48.750;9.078;2023-03-14T02:16:54;8.30;99.90
2300;DHT22;1158;48.750;9.078;2023-03-14T02:19:30;8.30;99.90
2300;DHT22;1158;48.750;9.078;2023-03-14T02:22:04;8.30;99.90
2300;DHT22;1158;48.750;9.078;2023-03-14T02:24:38;8.30;99.90
2300;DHT22;1158;48.750;9.078;2023-03-14T02:27:10;8.40;99.90
2300;DHT22;1158;48.750;9.078;2023-03-14T02:29:41;8.40;99.90
2300;DHT22;1158;48.750;9.078;2023-03-14T02:32:11;8.40;99.90
2300;DHT22;1158;48.750;9.078;2023-03-14T02:34:40;8.40;99.90
2300;DHT22;1158;48.750;9.078;2023-03-14T02:37:08;8.40;99.90
2300;DHT22;1158;48.750;9.078;2023-03-14T02:39:38;8.40;99.90
2300;DHT22;1158;48.750;9.078;2023-03-14T02:42:06;8.40;99.90
2300;DHT22;1158;48.750;9.078;2023-03-14T02:44:34;8.40;99.90
2300;DHT22;1158;48.750;9.078;2023-03-14T02:47:02;8.40;99.90
2300;DHT22;1158;48.750;9.078;2023-03-14T02:49:30;8.40;99.90
2300;DHT22;1158;48.750;9.078;2023-03-14T02:51:58;8.40;99.90
2300;DHT22;1158;48.750;9.078;2023-03-14T02:54:24;8.40;99.90
2300;DHT22;1158;48.750;9.078;2023-03-14T02:56:51;8.40;99.90
2300;DHT22;1158;48.750;9.078;2023-03-14T02:59:18;8.40;99.90
2300;DHT22;1158;48.750;9.078;2023-03-14T03:01:46;8.30;99.90
2300;DHT22;1158;48.750;9.078;2023-03-14T03:04:12;8.30;99.90
2300;DHT22;1158;48.750;9.078;2023-03-14T03:06:39;8.30;99.90
2300;DHT22;1158;48.750;9.078;2023-03-14T03:09:06;8.20;99.90
2300;DHT22;1158;48.750;9.078;2023-03-14T03:11:32;8.20;99.90
2300;DHT22;1158;48.750;9.078;2023-03-14T03:13:59;8.30;99.90
2300;DHT22;1158;48.750;9.078;2023-03-14T03:16:26;8.30;99.90
2300;DHT22;1158;48.750;9.078;2023-03-14T03:18:54;8.20;99.90
2300;DHT22;1158;48.750;9.078;2023-03-14T03:21:20;8.30;99.90
2300;DHT22;1158;48.750;9.078;2023-03-14T03:23:48;8.30;99.90
2300;DHT22;1158;48.750;9.078;2023-03-14T03:26:15;8.30;99.90
2300;DHT22;1158;48.750;9.078;2023-03-14T03:28:42;8.30;99.90
2300;DHT22;1158;48.750;9.078;2023-03-14T03:31:10;8.30;99.90
2300;DHT22;1158;48.750;9.078;2023-03-14T03:33:37;8.30;99.90
2300;DHT22;1158;48.750;9.078;2023-03-14T03:36:07;8.30;99.90
2300;DHT22;1158;48.750;9.078;2023-03-14T03:38:34;8.30;99.90
2300;DHT22;1158;48.750;9.078;2023-03-14T03:41:02;8.30;99.90
2300;DHT22;1158;48.750;9.078;2023-03-14T03:43:30;8.30;99.90
2300;DHT22;1158;48.750;9.078;2023-03-14T03:45:56;8.20;99.90
2300;DHT22;1158;48.750;9.078;2023-03-14T03:48:23;8.20;99.90
2300;DHT22;1158;48.750;9.078;2023-03-14T03:50:50;8.20;99.90
2300;DHT22;1158;48.750;9.078;2023-03-14T03:53:18;8.20;99.90
2300;DHT22;1158;48.750;9.078;2023-03-14T03:55:44;8.20;99.90
2300;DHT22;1158;48.750;9.078;2023-03-14T03:58:11;8.20;99.90
2300;DHT22;1158;48.750;9.078;2023-03-14T04:00:38;8.20;99.90
2300;DHT22;1158;48.750;9.078;2023-03-14T04:03:05;8.20;99.90
2300;DHT22;1158;48.750;9.078;2023-03-14T04:05:32;8.10;99.90
2300;DHT22;1158;48.750;9.078;2023-03-14T04:07:59;8.10;99.90
2300;DHT22;1158;48.750;9.078;2023-03-14T04:10:28;8.00;99.90
2300;DHT22;1158;48.750;9.078;2023-03-14T04:12:54;8.00;99.90
2300;DHT22;1158;48.750;9.078;2023-03-14T04:15:21;8.00;99.90
2300;DHT22;1158;48.750;9.078;2023-03-14T04:17:48;8.00;99.90
2300;DHT22;1158;48.750;9.078;2023-03-14T04:20:14;8.10;99.90
2300;DHT22;1158;48.750;9.078;2023-03-14T04:22:41;8.10;99.90
2300;DHT22;1158;48.750;9.078;2023-03-14T04:25:08;8.00;99.90
2300;DHT22;1158;48.750;9.078;2023-03-14T04:27:36;8.00;99.90
2300;DHT22;1158;48.750;9.078;2023-03-14T04:30:04;8.00;99.90
2300;DHT22;1158;48.750;9.078;2023-03-14T04:32:31;8.00;99.90
2300;DHT22;1158;48.750;9.078;2023-03-14T04:34:57;8.00;99.90
2300;DHT22;1158;48.750;9.078;2023-03-14T04:37:24;8.10;99.90
2300;DHT22;1158;48.750;9.078;2023-03-14T04:39:51;8.00;99.90
2300;DHT22;1158;48.750;9.078;2023-03-14T04:42:17;8.00;99.90
2300;DHT22;1158;48.750;9.078;2023-03-14T04:44:45;8.10;99.90
2300;DHT22;1158;48.750;9.078;2023-03-14T04:47:14;8.10;99.90
2300;DHT22;1158;48.750;9.078;2023-03-14T04:49:41;8.10;99.90
2300;DHT22;1158;48.750;9.078;2023-03-14T04:52:08;8.10;99.90
2300;DHT22;1158;48.750;9.078;2023-03-14T04:54:35;8.20;99.90
2300;DHT22;1158;48.750;9.078;2023-03-14T04:57:02;8.10;99.90
2300;DHT22;1158;48.750;9.078;2023-03-14T04:59:28;8.10;99.90
2300;DHT22;1158;48.750;9.078;2023-03-14T05:01:56;8.00;99.90
2300;DHT22;1158;48.750;9.078;2023-03-14T05:04:23;8.10;99.90
2300;DHT22;1158;48.750;9.078;2023-03-14T05:06:50;8.10;99.90
2300;DHT22;1158;48.750;9.078;2023-03-14T05:09:17;8.10;99.90
2300;DHT22;1158;48.750;9.078;2023-03-14T05:11:43;8.10;99.90
2300;DHT22;1158;48.750;9.078;2023-03-14T05:14:10;8.00;99.90
2300;DHT22;1158;48.750;9.078;2023-03-14T05:16:37;8.00;99.90
2300;DHT22;1158;48.750;9.078;2023-03-14T05:19:05;7.90;99.90
2300;DHT22;1158;48.750;9.078;2023-03-14T05:21:31;8.00;99.90
2300;DHT22;1158;48.750;9.078;2023-03-14T05:23:58;7.90;99.90
2300;DHT22;1158;48.750;9.078;2023-03-14T05:26:25;7.90;99.90
2300;DHT22;1158;48.750;9.078;2023-03-14T05:28:51;8.00;99.90
2300;DHT22;1158;48.750;9.078;2023-03-14T05:31:18;7.90;99.90
2300;DHT22;1158;48.750;9.078;2023-03-14T05:33:45;8.00;99.90
2300;DHT22;1158;48.750;9.078;2023-03-14T05:36:13;8.00;99.90
2300;DHT22;1158;48.750;9.078;2023-03-14T05:38:40;8.10;99.90
2300;DHT22;1158;48.750;9.078;2023-03-14T05:41:06;8.00;99.90
2300;DHT22;1158;48.750;9.078;2023-03-14T05:43:33;8.10;99.90
2300;DHT22;1158;48.750;9.078;2023-03-14T05:46:00;8.10;99.90
2300;DHT22;1158;48.750;9.078;2023-03-14T05:48:27;8.10;99.90
2300;DHT22;1158;48.750;9.078;2023-03-14T05:50:57;8.20;99.90
2300;DHT22;1158;48.750;9.078;2023-03-14T05:53:26;8.20;99.90
2300;DHT22;1158;48.750;9.078;2023-03-14T05:55:55;8.20;99.90
2300;DHT22;1158;48.750;9.078;2023-03-14T05:58:22;8.20;99.90
2300;DHT22;1158;48.750;9.078;2023-03-14T06:00:50;8.20;99.90
2300;DHT22;1158;48.750;9.078;2023-03-14T06:03:17;8.20;99.90
2300;DHT22;1158;48.750;9.078;2023-03-14T06:05:44;8.20;99.90
2300;DHT22;1158;48.750;9.078;2023-03-14T06:08:10;8.20;99.90
2300;DHT22;1158;48.750;9.078;2023-03-14T06:10:38;8.20;99.90
2300;DHT22;1158;48.750;9.078;2023-03-14T06:13:05;8.20;99.90
2300;DHT22;1158;48.750;9.078;2023-03-14T06:15:32;8.30;99.90
2300;DHT22;1158;48.750;9.078;2023-03-14T06:18:00;8.30;99.90
2300;DHT22;1158;48.750;9.078;2023-03-14T06:20:27;8.30;99.90
2300;DHT22;1158;48.750;9.078;2023-03-14T06:22:54;8.30;99.90
2300;DHT22;1158;48.750;9.078;2023-03-14T06:25:20;8.30;99.90
2300;DHT22;1158;48.750;9.078;2023-03-14T06:27:48;8.30;99.90
2300;DHT22;1158;48.750;9.078;2023-03-14T06:30:16;8.40;99.90
2300;DHT22;1158;48.750;9.078;2023-03-14T06:32:43;8.30;99.90
2300;DHT22;1158;48.750;9.078;2023-03-14T06:35:09;8.30;99.90
2300;DHT22;1158;48.750;9.078;2023-03-14T06:37:36;8.30;99.90
2300;DHT22;1158;48.750;9.078;2023-03-14T06:40:04;8.40;99.90
2300;DHT22;1158;48.750;9.078;2023-03-14T06:42:32;8.60;99.90
2300;DHT22;1158;48.750;9.078;2023-03-14T06:45:00;8.80;99.90
2300;DHT22;1158;48.750;9.078;2023-03-14T06:47:27;9.30;99.90
2300;DHT22;1158;48.750;9.078;2023-03-14T06:49:54;10.40;99.90
2300;DHT22;1158;48.750;9.078;2023-03-14T06:52:20;10.90;99.90
2300;DHT22;1158;48.750;9.078;2023-03-14T06:54:47;10.60;99.90
2300;DHT22;1158;48.750;9.078;2023-03-14T06:57:14;10.10;99.90
2300;DHT22;1158;48.750;9.078;2023-03-14T06:59:40;10.70;99.90
2300;DHT22;1158;48.750;9.078;2023-03-14T07:02:11;10.40;99.90
2300;DHT22;1158;48.750;9.078;2023-03-14T07:04:37;10.00;99.90
2300;DHT22;1158;48.750;9.078;2023-03-14T07:07:04;10.00;99.90
2300;DHT22;1158;48.750;9.078;2023-03-14T07:09:31;10.90;99.90
2300;DHT22;1158;48.750;9.078;2023-03-14T07:11:58;12.10;99.90
2300;DHT22;1158;48.750;9.078;2023-03-14T07:14:25;12.90;99.90
2300;DHT22;1158;48.750;9.078;2023-03-14T07:16:52;12.00;99.90
2300;DHT22;1158;48.750;9.078;2023-03-14T07:19:20;10.70;99.90
2300;DHT22;1158;48.750;9.078;2023-03-14T07:21:47;11.10;99.90
2300;DHT22;1158;48.750;9.078;2023-03-14T07:24:13;13.20;99.90
2300;DHT22;1158;48.750;9.078;2023-03-14T07:26:40;13.80;99.90
2300;DHT22;1158;48.750;9.078;2023-03-14T07:29:07;13.70;99.90
2300;DHT22;1158;48.750;9.078;2023-03-14T07:31:33;14.10;99.90
2300;DHT22;1158;48.750;9.078;2023-03-14T07:34:00;14.70;99.90
2300;DHT22;1158;48.750;9.078;2023-03-14T07:36:28;15.30;99.90
2300;DHT22;1158;48.750;9.078;2023-03-14T07:38:55;15.00;99.90
2300;DHT22;1158;48.750;9.078;2023-03-14T07:41:21;14.80;99.90
2300;DHT22;1158;48.750;9.078;2023-03-14T07:43:48;15.20;99.90
2300;DHT22;1158;48.750;9.078;2023-03-14T07:46:15;15.60;99.90
2300;DHT22;1158;48.750;9.078;2023-03-14T07:48:42;15.30;99.90
2300;DHT22;1158;48.750;9.078;2023-03-14T07:51:09;15.30;99.90
2300;DHT22;1158;48.750;9.078;2023-03-14T07:53:37;15.70;99.90
2300;DHT22;1158;48.750;9.078;2023-03-14T07:56:05;16.80;99.90
2300;DHT22;1158;48.750;9.078;2023-03-14T07:58:32;17.00;99.60
2300;DHT22;1158;48.750;9.078;2023-03-14T08:00:59;17.30;98.70
2300;DHT22;1158;48.750;9.078;2023-03-14T08:03:27;16.30;99.60
2300;DHT22;1158;48.750;9.078;2023-03-14T08:05:53;15.80;99.60
2300;DHT22;1158;48.750;9.078;2023-03-14T08:08:20;15.10;99.90
2300;DHT22;1158;48.750;9.078;2023-03-14T08:10:48;14.50;99.90
2300;DHT22;1158;48.750;9.078;2023-03-14T08:13:15;15.00;99.90
2300;DHT22;1158;48.750;9.078;2023-03-14T08:15:42;16.70;99.90
2300;DHT22;1158;48.750;9.078;2023-03-14T08:18:08;17.20;98.40
2300;DHT22;1158;48.750;9.078;2023-03-14T08:20:35;16.00;98.80
2300;DHT22;1158;48.750;9.078;2023-03-14T08:23:02;14.90;99.00
2300;DHT22;1158;48.750;9.078;2023-03-14T08:25:29;14.00;99.90
2300;DHT22;1158;48.750;9.078;2023-03-14T08:27:57;13.80;99.90
2300;DHT22;1158;48.750;9.078;2023-03-14T08:30:24;14.70;99.90
2300;DHT22;1158;48.750;9.078;2023-03-14T08:32:51;15.40;99.10
2300;DHT22;1158;48.750;9.078;2023-03-14T08:35:18;16.60;98.50
2300;DHT22;1158;48.750;9.078;2023-03-14T08:37:45;16.10;98.00
2300;DHT22;1158;48.750;9.078;2023-03-14T08:40:13;14.90;99.00
2300;DHT22;1158;48.750;9.078;2023-03-14T08:42:41;14.30;99.90
2300;DHT22;1158;48.750;9.078;2023-03-14T08:45:12;13.80;99.90
2300;DHT22;1158;48.750;9.078;2023-03-14T08:47:39;13.80;99.90
2300;DHT22;1158;48.750;9.078;2023-03-14T08:50:07;14.70;99.50
2300;DHT22;1158;48.750;9.078;2023-03-14T08:52:34;14.60;99.30
2300;DHT22;1158;48.750;9.078;2023-03-14T08:55:03;14.20;99.70
2300;DHT22;1158;48.750;9.078;2023-03-14T08:57:30;14.20;99.90
2300;DHT22;1158;48.750;9.078;2023-03-14T08:59:57;13.20;99.90
2300;DHT22;1158;48.750;9.078;2023-03-14T09:02:25;12.80;99.90
2300;DHT22;1158;48.750;9.078;2023-03-14T09:04:53;12.90;99.90
2300;DHT22;1158;48.750;9.078;2023-03-14T09:07:20;12.60;99.90
2300;DHT22;1158;48.750;9.078;2023-03-14T09:09:46;12.40;99.90
2300;DHT22;1158;48.750;9.078;2023-03-14T09:12:13;12.80;99.90
2300;DHT22;1158;48.750;9.078;2023-03-14T09:14:40;13.00;99.90
2300;DHT22;1158;48.750;9.078;2023-03-14T09:17:07;13.20;99.90
2300;DHT22;1158;48.750;9.078;2023-03-14T09:19:35;13.10;99.90
2300;DHT22;1158;48.750;9.078;2023-03-14T09:22:02;13.00;99.90
2300;DHT22;1158;48.750;9.078;2023-03-14T09:24:29;13.10;99.90
2300;DHT22;1158;48.750;9.078;2023-03-14T09:26:56;13.40;99.90
2300;DHT22;1158;48.750;9.078;2023-03-14T09:29:24;13.50;99.90
2300;DHT22;1158;48.750;9.078;2023-03-14T09:31:51;13.40;99.90
2300;DHT22;1158;48.750;9.078;2023-03-14T09:34:17;13.10;99.90
2300;DHT22;1158;48.750;9.078;2023-03-14T09:36:46;12.10;99.90
2300;DHT22;1158;48.750;9.078;2023-03-14T09:39:12;11.40;99.90
2300;DHT22;1158;48.750;9.078;2023-03-14T09:41:41;11.40;99.90
2300;DHT22;1158;48.750;9.078;2023-03-14T09:44:12;11.30;99.90
2300;DHT22;1158;48.750;9.078;2023-03-14T09:46:41;11.40;99.90
2300;DHT22;1158;48.750;9.078;2023-03-14T09:49:12;11.40;99.90
2300;DHT22;1158;48.750;9.078;2023-03-14T09:51:43;11.40;99.90
2300;DHT22;1158;48.750;9.078;2023-03-14T09:54:23;11.40;99.90
2300;DHT22;1158;48.750;9.078;2023-03-14T09:56:51;11.30;99.90
2300;DHT22;1158;48.750;9.078;2023-03-14T09:59:18;11.20;99.90
2300;DHT22;1158;48.750;9.078;2023-03-14T10:01:45;11.10;99.90
2300;DHT22;1158;48.750;9.078;2023-03-14T10:04:15;11.10;99.90
2300;DHT22;1158;48.750;9.078;2023-03-14T10:06:43;11.20;99.90
2300;DHT22;1158;48.750;9.078;2023-03-14T10:09:17;12.40;99.90
2300;DHT22;1158;48.750;9.078;2023-03-14T10:11:51;12.90;99.90
2300;DHT22;1158;48.750;9.078;2023-03-14T10:14:29;12.80;99.90
2300;DHT22;1158;48.750;9.078;2023-03-14T10:17:05;12.60;99.90
2300;DHT22;1158;48.750;9.078;2023-03-14T10:19:32;12.90;99.90
2300;DHT22;1158;48.750;9.078;2023-03-14T10:22:02;13.00;99.90
2300;DHT22;1158;48.750;9.078;2023-03-14T10:24:33;13.00;99.90
2300;DHT22;1158;48.750;9.078;2023-03-14T10:27:01;13.20;99.90
2300;DHT22;1158;48.750;9.078;2023-03-14T10:29:29;12.80;99.90
2300;DHT22;1158;48.750;9.078;2023-03-14T10:31:59;12.60;99.90
2300;DHT22;1158;48.750;9.078;2023-03-14T10:34:28;12.70;99.90
2300;DHT22;1158;48.750;9.078;2023-03-14T10:36:58;13.20;99.90
2300;DHT22;1158;48.750;9.078;2023-03-14T10:39:29;13.30;99.90
2300;DHT22;1158;48.750;9.078;2023-03-14T10:42:04;13.50;99.90
2300;DHT22;1158;48.750;9.078;2023-03-14T10:44:33;13.10;99.90
2300;DHT22;1158;48.750;9.078;2023-03-14T10:47:02;12.80;99.90
2300;DHT22;1158;48.750;9.078;2023-03-14T10:49:30;12.40;99.90
2300;DHT22;1158;48.750;9.078;2023-03-14T10:52:02;12.30;99.90
2300;DHT22;1158;48.750;9.078;2023-03-14T10:54:30;11.90;99.90
2300;DHT22;1158;48.750;9.078;2023-03-14T10:56:57;11.70;99.90
2300;DHT22;1158;48.750;9.078;2023-03-14T10:59:29;11.60;99.90
2300;DHT22;1158;48.750;9.078;2023-03-14T11:01:59;11.40;99.90
2300;DHT22;1158;48.750;9.078;2023-03-14T11:04:44;11.30;99.90
2300;DHT22;1158;48.750;9.078;2023-03-14T11:07:14;11.20;99.90
2300;DHT22;1158;48.750;9.078;2023-03-14T11:09:46;10.80;99.90
2300;DHT22;1158;48.750;9.078;2023-03-14T11:12:37;10.80;99.90
2300;DHT22;1158;48.750;9.078;2023-03-14T11:15:17;10.80;99.90
2300;DHT22;1158;48.750;9.078;2023-03-14T11:17:53;10.80;99.90
2300;DHT22;1158;48.750;9.078;2023-03-14T11:20:35;10.60;99.90
2300;DHT22;1158;48.750;9.078;2023-03-14T11:23:08;10.20;99.90
2300;DHT22;1158;48.750;9.078;2023-03-14T11:25:43;10.00;99.90
2300;DHT22;1158;48.750;9.078;2023-03-14T11:28:18;9.80;99.90
2300;DHT22;1158;48.750;9.078;2023-03-14T11:30:51;9.70;99.90
2300;DHT22;1158;48.750;9.078;2023-03-14T11:33:21;9.60;99.90
2300;DHT22;1158;48.750;9.078;2023-03-14T11:35:55;9.60;99.90
2300;DHT22;1158;48.750;9.078;2023-03-14T11:38:30;9.70;99.90
2300;DHT22;1158;48.750;9.078;2023-03-14T11:41:00;9.80;99.90
2300;DHT22;1158;48.750;9.078;2023-03-14T11:43:30;9.80;99.90
2300;DHT22;1158;48.750;9.078;2023-03-14T11:46:04;9.70;99.90
2300;DHT22;1158;48.750;9.078;2023-03-14T11:48:38;9.70;99.90
2300;DHT22;1158;48.750;9.078;2023-03-14T11:51:09;9.70;99.90
2300;DHT22;1158;48.750;9.078;2023-03-14T11:53:47;9.70;99.90
2300;DHT22;1158;48.750;9.078;2023-03-14T11:56:22;9.60;99.90
2300;DHT22;1158;48.750;9.078;2023-03-14T11:58:55;9.60;99.90
2300;DHT22;1158;48.750;9.078;2023-03-14T12:01:31;9.70;99.90
2300;DHT22;1158;48.750;9.078;2023-03-14T12:04:05;9.80;99.90
2300;DHT22;1158;48.750;9.078;2023-03-14T12:06:38;9.70;99.90
2300;DHT22;1158;48.750;9.078;2023-03-14T12:09:08;9.60;99.90
2300;DHT22;1158;48.750;9.078;2023-03-14T12:11:40;9.60;99.90
2300;DHT22;1158;48.750;9.078;2023-03-14T12:14:23;9.50;99.90
2300;DHT22;1158;48.750;9.078;2023-03-14T12:16:55;9.30;99.90
2300;DHT22;1158;48.750;9.078;2023-03-14T12:19:32;9.40;99.90
2300;DHT22;1158;48.750;9.078;2023-03-14T12:22:06;9.80;99.90
2300;DHT22;1158;48.750;9.078;2023-03-14T12:24:36;9.90;99.90
2300;DHT22;1158;48.750;9.078;2023-03-14T12:27:06;9.90;99.90
2300;DHT22;1158;48.750;9.078;2023-03-14T12:29:57;9.80;99.90
2300;DHT22;1158;48.750;9.078;2023-03-14T12:32:26;10.40;99.90
2300;DHT22;1158;48.750;9.078;2023-03-14T12:34:52;10.80;99.90
2300;DHT22;1158;48.750;9.078;2023-03-14T12:37:28;10.50;99.90
2300;DHT22;1158;48.750;9.078;2023-03-14T12:40:06;10.30;99.90
2300;DHT22;1158;48.750;9.078;2023-03-14T12:42:40;10.30;99.90
2300;DHT22;1158;48.750;9.078;2023-03-14T12:45:21;10.60;99.90
2300;DHT22;1158;48.750;9.078;2023-03-14T12:50:42;11.10;99.90
2300;DHT22;1158;48.750;9.078;2023-03-14T12:53:36;11.60;99.90
2300;DHT22;1158;48.750;9.078;2023-03-14T12:56:23;11.40;99.90
2300;DHT22;1158;48.750;9.078;2023-03-14T12:59:20;11.00;99.30
2300;DHT22;1158;48.750;9.078;2023-03-14T13:01:53;10.90;99.10
2300;DHT22;1158;48.750;9.078;2023-03-14T13:04:28;11.10;99.30
2300;DHT22;1158;48.750;9.078;2023-03-14T13:06:56;10.80;99.30
2300;DHT22;1158;48.750;9.078;2023-03-14T13:09:45;10.40;99.30
2300;DHT22;1158;48.750;9.078;2023-03-14T13:12:17;9.80;99.70
2300;DHT22;1158;48.750;9.078;2023-03-14T13:14:47;9.60;98.20
2300;DHT22;1158;48.750;9.078;2023-03-14T13:17:18;9.80;96.90
2300;DHT22;1158;48.750;9.078;2023-03-14T13:19:50;9.70;96.90
2300;DHT22;1158;48.750;9.078;2023-03-14T13:22:22;9.80;97.10
2300;DHT22;1158;48.750;9.078;2023-03-14T13:24:50;9.80;96.70
2300;DHT22;1158;48.750;9.078;2023-03-14T13:27:18;9.90;96.90
2300;DHT22;1158;48.750;9.078;2023-03-14T13:29:48;9.70;96.50
2300;DHT22;1158;48.750;9.078;2023-03-14T13:32:17;9.30;96.60
2300;DHT22;1158;48.750;9.078;2023-03-14T13:34:46;9.40;97.00
2300;DHT22;1158;48.750;9.078;2023-03-14T13:37:20;9.30;97.20
2300;DHT22;1158;48.750;9.078;2023-03-14T13:39:49;9.10;96.50
2300;DHT22;1158;48.750;9.078;2023-03-14T13:42:17;9.00;97.10
2300;DHT22;1158;48.750;9.078;2023-03-14T13:44:45;8.80;97.10
2300;DHT22;1158;48.750;9.078;2023-03-14T13:47:15;8.80;97.30
2300;DHT22;1158;48.750;9.078;2023-03-14T13:49:43;8.80;97.30
2300;DHT22;1158;48.750;9.078;2023-03-14T13:52:28;9.20;97.30
2300;DHT22;1158;48.750;9.078;2023-03-14T13:54:56;8.90;94.90
2300;DHT22;1158;48.750;9.078;2023-03-14T13:57:23;8.90;94.70
2300;DHT22;1158;48.750;9.078;2023-03-14T14:00:00;9.00;93.90
2300;DHT22;1158;48.750;9.078;2023-03-14T14:02:32;9.00;93.80
2300;DHT22;1158;48.750;9.078;2023-03-14T14:04:59;9.10;94.30
2300;DHT22;1158;48.750;9.078;2023-03-14T14:07:28;9.20;92.80
2300;DHT22;1158;48.750;9.078;2023-03-14T14:09:55;9.10;92.90
2300;DHT22;1158;48.750;9.078;2023-03-14T14:12:25;8.80;92.70
2300;DHT22;1158;48.750;9.078;2023-03-14T14:14:55;8.70;92.90
2300;DHT22;1158;48.750;9.078;2023-03-14T14:17:26;8.80;92.70
2300;DHT22;1158;48.750;9.078;2023-03-14T14:19:55;8.70;92.10
2300;DHT22;1158;48.750;9.078;2023-03-14T14:22:22;8.40;92.80
2300;DHT22;1158;48.750;9.078;2023-03-14T14:24:50;8.30;92.70
2300;DHT22;1158;48.750;9.078;2023-03-14T14:27:19;8.30;93.30
2300;DHT22;1158;48.750;9.078;2023-03-14T14:29:59;8.30;93.10
2300;DHT22;1158;48.750;9.078;2023-03-14T14:32:33;8.40;93.30
2300;DHT22;1158;48.750;9.078;2023-03-14T14:35:01;8.40;93.50
2300;DHT22;1158;48.750;9.078;2023-03-14T14:37:31;8.30;93.80
2300;DHT22;1158;48.750;9.078;2023-03-14T14:40:06;8.30;93.80
2300;DHT22;1158;48.750;9.078;2023-03-14T14:42:39;8.30;94.00
2300;DHT22;1158;48.750;9.078;2023-03-14T14:45:09;8.40;94.10
2300;DHT22;1158;48.750;9.078;2023-03-14T14:47:48;8.30;94.00
2300;DHT22;1158;48.750;9.078;2023-03-14T14:50:28;8.20;94.10
2300;DHT22;1158;48.750;9.078;2023-03-14T14:52:57;8.30;94.60
2300;DHT22;1158;48.750;9.078;2023-03-14T14:55:30;8.30;94.30
2300;DHT22;1158;48.750;9.078;2023-03-14T14:57:58;8.20;94.30
2300;DHT22;1158;48.750;9.078;2023-03-14T15:00:39;8.20;94.40
2300;DHT22;1158;48.750;9.078;2023-03-14T15:03:13;8.40;94.20
2300;DHT22;1158;48.750;9.078;2023-03-14T15:05:41;8.60;94.20
2300;DHT22;1158;48.750;9.078;2023-03-14T15:08:09;8.80;93.70
2300;DHT22;1158;48.750;9.078;2023-03-14T15:10:37;9.40;93.20
2300;DHT22;1158;48.750;9.078;2023-03-14T15:13:04;10.50;91.80
2300;DHT22;1158;48.750;9.078;2023-03-14T15:15:31;11.50;91.20
2300;DHT22;1158;48.750;9.078;2023-03-14T15:17:57;10.90;91.00
2300;DHT22;1158;48.750;9.078;2023-03-14T15:20:24;10.20;91.00
2300;DHT22;1158;48.750;9.078;2023-03-14T15:22:51;9.80;91.90
2300;DHT22;1158;48.750;9.078;2023-03-14T15:25:18;9.10;92.30
2300;DHT22;1158;48.750;9.078;2023-03-14T15:27:46;8.80;92.90
2300;DHT22;1158;48.750;9.078;2023-03-14T15:30:14;8.60;93.30
2300;DHT22;1158;48.750;9.078;2023-03-14T15:32:41;8.60;93.50
2300;DHT22;1158;48.750;9.078;2023-03-14T15:35:09;8.80;93.70
2300;DHT22;1158;48.750;9.078;2023-03-14T15:37:35;8.90;93.80
2300;DHT22;1158;48.750;9.078;2023-03-14T15:40:04;8.60;93.70
2300;DHT22;1158;48.750;9.078;2023-03-14T15:42:37;8.50;94.10
2300;DHT22;1158;48.750;9.078;2023-03-14T15:45:06;8.50;94.10
2300;DHT22;1158;48.750;9.078;2023-03-14T15:47:33;8.50;94.20
2300;DHT22;1158;48.750;9.078;2023-03-14T15:50:00;8.50;94.60
2300;DHT22;1158;48.750;9.078;2023-03-14T15:52:27;8.50;94.50
2300;DHT22;1158;48.750;9.078;2023-03-14T15:54:53;9.10;94.10
2300;DHT22;1158;48.750;9.078;2023-03-14T15:57:20;9.10;93.90
2300;DHT22;1158;48.750;9.078;2023-03-14T15:59:46;8.60;94.30
2300;DHT22;1158;48.750;9.078;2023-03-14T16:02:14;8.30;94.90
2300;DHT22;1158;48.750;9.078;2023-03-14T16:04:41;8.00;95.30
2300;DHT22;1158;48.750;9.078;2023-03-14T16:07:09;7.80;95.40
2300;DHT22;1158;48.750;9.078;2023-03-14T16:09:35;7.70;95.60
2300;DHT22;1158;48.750;9.078;2023-03-14T16:12:02;7.50;95.60
2300;DHT22;1158;48.750;9.078;2023-03-14T16:14:30;7.80;95.70
2300;DHT22;1158;48.750;9.078;2023-03-14T16:16:56;7.80;95.80
2300;DHT22;1158;48.750;9.078;2023-03-14T16:19:26;7.80;96.00
2300;DHT22;1158;48.750;9.078;2023-03-14T16:21:52;7.70;96.10
2300;DHT22;1158;48.750;9.078;2023-03-14T16:24:19;7.70;95.90
2300;DHT22;1158;48.750;9.078;2023-03-14T16:26:46;7.90;95.80